sensor_id;sensor_type;location;lat;lon;timestamp;P1;durP1;ratioP1;P2;durP2;ratioP2
26060;SDS011;36331;51.378;0.018;2022-08-21T00:00:55;5.68;;;1.30;;
26060;SDS011;36331;51.378;0.018;2022-08-21T00:03:28;7.25;;;2.25;;
26060;SDS011;36331;51.378;0.018;2022-08-21T00:06:02;9.35;;;2.05;;
26060;SDS011;36331;51.378;0.018;2022-08-21T00:08:40;5.88;;;1.95;;
26060;SDS011;36331;51.378;0.018;2022-08-21T00:11:13;6.75;;;1.88;;
26060;SDS011;36331;51.378;0.018;2022-08-21T00:13:51;11.57;;;2.25;;
26060;SDS011;36331;51.378;0.018;2022-08-21T00:16:23;5.72;;;2.20;;
26060;SDS011;36331;51.378;0.018;2022-08-21T00:18:56;7.53;;;2.20;;
26060;SDS011;36331;51.378;0.018;2022-08-21T00:21:27;8.57;;;2.10;;
26060;SDS011;36331;51.378;0.018;2022-08-21T00:23:59;10.35;;;2.70;;
26060;SDS011;36331;51.378;0.018;2022-08-21T00:33:15;8.32;;;2.00;;
26060;SDS011;36331;51.378;0.018;2022-08-21T00:35:44;9.98;;;2.33;;
26060;SDS011;36331;51.378;0.018;2022-08-21T00:38:35;8.82;;;3.03;;
26060;SDS011;36331;51.378;0.018;2022-08-21T00:41:25;11.88;;;2.60;;
26060;SDS011;36331;51.378;0.018;2022-08-21T00:44:47;8.05;;;2.00;;
26060;SDS011;36331;51.378;0.018;2022-08-21T00:47:35;11.43;;;2.50;;
26060;SDS011;36331;51.378;0.018;2022-08-21T00:53:16;13.13;;;2.47;;
26060;SDS011;36331;51.378;0.018;2022-08-21T00:58:18;11.43;;;2.15;;
26060;SDS011;36331;51.378;0.018;2022-08-21T01:03:22;9.80;;;2.15;;
26060;SDS011;36331;51.378;0.018;2022-08-21T01:05:52;8.40;;;1.83;;
26060;SDS011;36331;51.378;0.018;2022-08-21T01:08:24;8.80;;;2.70;;
26060;SDS011;36331;51.378;0.018;2022-08-21T01:10:54;8.23;;;1.90;;
26060;SDS011;36331;51.378;0.018;2022-08-21T01:13:28;9.00;;;2.60;;
26060;SDS011;36331;51.378;0.018;2022-08-21T01:16:02;11.52;;;2.97;;
26060;SDS011;36331;51.378;0.018;2022-08-21T01:18:33;11.60;;;2.75;;
26060;SDS011;36331;51.378;0.018;2022-08-21T01:21:13;7.80;;;1.95;;
26060;SDS011;36331;51.378;0.018;2022-08-21T01:23:46;8.82;;;2.13;;
26060;SDS011;36331;51.378;0.018;2022-08-21T01:26:20;10.45;;;2.80;;
26060;SDS011;36331;51.378;0.018;2022-08-21T01:29:00;6.57;;;2.20;;
26060;SDS011;36331;51.378;0.018;2022-08-21T01:34:00;9.90;;;2.10;;
26060;SDS011;36331;51.378;0.018;2022-08-21T01:36:33;10.73;;;2.75;;
26060;SDS011;36331;51.378;0.018;2022-08-21T01:39:04;7.53;;;2.25;;
26060;SDS011;36331;51.378;0.018;2022-08-21T01:41:34;14.57;;;3.85;;
26060;SDS011;36331;51.378;0.018;2022-08-21T01:44:06;8.63;;;2.50;;
26060;SDS011;36331;51.378;0.018;2022-08-21T01:46:37;8.88;;;2.10;;
26060;SDS011;36331;51.378;0.018;2022-08-21T01:49:08;8.65;;;2.33;;
26060;SDS011;36331;51.378;0.018;2022-08-21T01:51:45;10.20;;;2.13;;
26060;SDS011;36331;51.378;0.018;2022-08-21T01:54:15;11.90;;;2.45;;
26060;SDS011;36331;51.378;0.018;2022-08-21T01:56:46;8.20;;;2.03;;
26060;SDS011;36331;51.378;0.018;2022-08-21T01:59:20;9.73;;;3.00;;
26060;SDS011;36331;51.378;0.018;2022-08-21T02:01:53;7.95;;;2.30;;
26060;SDS011;36331;51.378;0.018;2022-08-21T02:04:23;11.48;;;3.15;;
26060;SDS011;36331;51.378;0.018;2022-08-21T02:06:55;7.05;;;2.17;;
26060;SDS011;36331;51.378;0.018;2022-08-21T02:09:32;8.75;;;1.90;;
26060;SDS011;36331;51.378;0.018;2022-08-21T02:12:06;6.90;;;2.05;;
26060;SDS011;36331;51.378;0.018;2022-08-21T02:14:50;8.48;;;2.90;;
26060;SDS011;36331;51.378;0.018;2022-08-21T02:17:28;8.80;;;2.60;;
26060;SDS011;36331;51.378;0.018;2022-08-21T02:20:09;10.18;;;2.25;;
26060;SDS011;36331;51.378;0.018;2022-08-21T02:22:53;8.38;;;2.20;;
26060;SDS011;36331;51.378;0.018;2022-08-21T02:25:24;9.02;;;2.50;;
26060;SDS011;36331;51.378;0.018;2022-08-21T02:27:54;8.82;;;2.58;;
26060;SDS011;36331;51.378;0.018;2022-08-21T02:30:27;8.60;;;2.10;;
26060;SDS011;36331;51.378;0.018;2022-08-21T02:32:58;10.00;;;2.30;;
26060;SDS011;36331;51.378;0.018;2022-08-21T02:38:03;6.18;;;1.83;;
26060;SDS011;36331;51.378;0.018;2022-08-21T02:40:47;6.68;;;2.63;;
26060;SDS011;36331;51.378;0.018;2022-08-21T02:43:20;12.85;;;2.10;;
26060;SDS011;36331;51.378;0.018;2022-08-21T02:45:53;13.98;;;2.40;;
26060;SDS011;36331;51.378;0.018;2022-08-21T02:48:31;17.85;;;2.53;;
26060;SDS011;36331;51.378;0.018;2022-08-21T02:51:03;11.57;;;2.10;;
26060;SDS011;36331;51.378;0.018;2022-08-21T02:53:35;7.63;;;2.70;;
26060;SDS011;36331;51.378;0.018;2022-08-21T02:56:09;13.27;;;2.30;;
26060;SDS011;36331;51.378;0.018;2022-08-21T02:58:47;6.93;;;2.70;;
26060;SDS011;36331;51.378;0.018;2022-08-21T03:01:16;12.88;;;2.33;;
26060;SDS011;36331;51.378;0.018;2022-08-21T03:03:46;9.38;;;3.00;;
26060;SDS011;36331;51.378;0.018;2022-08-21T03:06:21;7.70;;;2.75;;
26060;SDS011;36331;51.378;0.018;2022-08-21T03:08:58;8.30;;;2.40;;
26060;SDS011;36331;51.378;0.018;2022-08-21T03:11:28;11.60;;;3.15;;
26060;SDS011;36331;51.378;0.018;2022-08-21T03:16:30;10.05;;;2.63;;
26060;SDS011;36331;51.378;0.018;2022-08-21T03:19:02;9.00;;;3.10;;
26060;SDS011;36331;51.378;0.018;2022-08-21T03:21:31;9.00;;;2.15;;
26060;SDS011;36331;51.378;0.018;2022-08-21T03:24:02;9.13;;;2.15;;
26060;SDS011;36331;51.378;0.018;2022-08-21T03:26:33;9.52;;;2.80;;
26060;SDS011;36331;51.378;0.018;2022-08-21T03:29:06;7.78;;;1.98;;
26060;SDS011;36331;51.378;0.018;2022-08-21T03:31:35;6.43;;;2.13;;
26060;SDS011;36331;51.378;0.018;2022-08-21T03:34:05;8.23;;;2.40;;
26060;SDS011;36331;51.378;0.018;2022-08-21T03:36:35;9.32;;;2.22;;
26060;SDS011;36331;51.378;0.018;2022-08-21T03:39:12;9.82;;;2.25;;
26060;SDS011;36331;51.378;0.018;2022-08-21T03:41:42;6.07;;;2.00;;
26060;SDS011;36331;51.378;0.018;2022-08-21T03:44:27;10.18;;;2.22;;
26060;SDS011;36331;51.378;0.018;2022-08-21T03:47:06;7.30;;;2.08;;
26060;SDS011;36331;51.378;0.018;2022-08-21T03:49:39;5.63;;;1.92;;
26060;SDS011;36331;51.378;0.018;2022-08-21T03:52:08;8.50;;;2.80;;
26060;SDS011;36331;51.378;0.018;2022-08-21T03:54:42;7.10;;;2.10;;
26060;SDS011;36331;51.378;0.018;2022-08-21T03:57:19;8.60;;;1.65;;
26060;SDS011;36331;51.378;0.018;2022-08-21T03:59:48;9.85;;;2.30;;
26060;SDS011;36331;51.378;0.018;2022-08-21T04:02:18;8.85;;;2.30;;
26060;SDS011;36331;51.378;0.018;2022-08-21T04:04:49;14.50;;;3.50;;
26060;SDS011;36331;51.378;0.018;2022-08-21T04:07:18;9.82;;;2.55;;
26060;SDS011;36331;51.378;0.018;2022-08-21T04:09:52;11.57;;;2.55;;
26060;SDS011;36331;51.378;0.018;2022-08-21T04:12:25;7.95;;;2.40;;
26060;SDS011;36331;51.378;0.018;2022-08-21T04:14:55;7.57;;;2.30;;
26060;SDS011;36331;51.378;0.018;2022-08-21T04:17:24;11.07;;;4.28;;
26060;SDS011;36331;51.378;0.018;2022-08-21T04:20:00;8.98;;;2.40;;
26060;SDS011;36331;51.378;0.018;2022-08-21T04:22:31;13.13;;;3.10;;
26060;SDS011;36331;51.378;0.018;2022-08-21T04:25:02;7.32;;;2.80;;
26060;SDS011;36331;51.378;0.018;2022-08-21T04:27:32;10.25;;;2.20;;
26060;SDS011;36331;51.378;0.018;2022-08-21T04:30:02;9.00;;;1.98;;
26060;SDS011;36331;51.378;0.018;2022-08-21T04:32:32;9.73;;;2.08;;
26060;SDS011;36331;51.378;0.018;2022-08-21T04:35:02;6.45;;;1.65;;
26060;SDS011;36331;51.378;0.018;2022-08-21T04:37:37;8.30;;;2.88;;
26060;SDS011;36331;51.378;0.018;2022-08-21T04:40:12;7.80;;;2.30;;
26060;SDS011;36331;51.378;0.018;2022-08-21T04:42:43;12.02;;;3.40;;
26060;SDS011;36331;51.378;0.018;2022-08-21T04:45:25;16.43;;;3.03;;
26060;SDS011;36331;51.378;0.018;2022-08-21T04:47:56;8.20;;;2.28;;
26060;SDS011;36331;51.378;0.018;2022-08-21T04:50:29;12.23;;;2.45;;
26060;SDS011;36331;51.378;0.018;2022-08-21T04:53:05;9.35;;;3.47;;
26060;SDS011;36331;51.378;0.018;2022-08-21T04:55:39;7.78;;;2.42;;
26060;SDS011;36331;51.378;0.018;2022-08-21T04:58:15;12.85;;;3.50;;
26060;SDS011;36331;51.378;0.018;2022-08-21T05:00:50;12.15;;;3.40;;
26060;SDS011;36331;51.378;0.018;2022-08-21T05:03:21;7.47;;;2.05;;
26060;SDS011;36331;51.378;0.018;2022-08-21T05:05:51;9.10;;;2.22;;
26060;SDS011;36331;51.378;0.018;2022-08-21T05:08:24;10.85;;;2.40;;
26060;SDS011;36331;51.378;0.018;2022-08-21T05:10:59;13.27;;;2.90;;
26060;SDS011;36331;51.378;0.018;2022-08-21T05:13:37;10.85;;;2.72;;
26060;SDS011;36331;51.378;0.018;2022-08-21T05:16:08;11.23;;;2.45;;
26060;SDS011;36331;51.378;0.018;2022-08-21T05:19:01;9.05;;;2.70;;
26060;SDS011;36331;51.378;0.018;2022-08-21T05:21:34;5.10;;;2.72;;
26060;SDS011;36331;51.378;0.018;2022-08-21T05:24:03;9.43;;;2.08;;
26060;SDS011;36331;51.378;0.018;2022-08-21T05:26:40;11.90;;;2.30;;
26060;SDS011;36331;51.378;0.018;2022-08-21T05:29:12;12.95;;;2.35;;
26060;SDS011;36331;51.378;0.018;2022-08-21T05:31:46;7.22;;;1.90;;
26060;SDS011;36331;51.378;0.018;2022-08-21T05:34:17;8.13;;;2.60;;
26060;SDS011;36331;51.378;0.018;2022-08-21T05:36:48;13.25;;;2.80;;
26060;SDS011;36331;51.378;0.018;2022-08-21T05:39:25;10.57;;;3.17;;
26060;SDS011;36331;51.378;0.018;2022-08-21T05:42:17;8.65;;;2.30;;
26060;SDS011;36331;51.378;0.018;2022-08-21T05:44:51;8.13;;;2.00;;
26060;SDS011;36331;51.378;0.018;2022-08-21T05:47:21;10.55;;;1.83;;
26060;SDS011;36331;51.378;0.018;2022-08-21T05:49:52;7.20;;;2.47;;
26060;SDS011;36331;51.378;0.018;2022-08-21T05:52:21;8.52;;;1.92;;
26060;SDS011;36331;51.378;0.018;2022-08-21T05:54:51;5.75;;;1.75;;
26060;SDS011;36331;51.378;0.018;2022-08-21T05:57:22;10.30;;;2.28;;
26060;SDS011;36331;51.378;0.018;2022-08-21T05:59:52;6.22;;;1.83;;
26060;SDS011;36331;51.378;0.018;2022-08-21T06:02:22;13.30;;;2.50;;
26060;SDS011;36331;51.378;0.018;2022-08-21T06:04:58;12.38;;;2.35;;
26060;SDS011;36331;51.378;0.018;2022-08-21T06:07:28;8.10;;;1.80;;
26060;SDS011;36331;51.378;0.018;2022-08-21T06:09:57;6.05;;;1.63;;
26060;SDS011;36331;51.378;0.018;2022-08-21T06:12:34;6.20;;;1.67;;
26060;SDS011;36331;51.378;0.018;2022-08-21T06:15:07;4.47;;;1.60;;
26060;SDS011;36331;51.378;0.018;2022-08-21T06:17:37;5.53;;;1.63;;
26060;SDS011;36331;51.378;0.018;2022-08-21T06:20:07;5.15;;;1.40;;
26060;SDS011;36331;51.378;0.018;2022-08-21T06:22:36;7.32;;;1.67;;
26060;SDS011;36331;51.378;0.018;2022-08-21T06:25:08;8.73;;;1.90;;
26060;SDS011;36331;51.378;0.018;2022-08-21T06:27:39;9.73;;;1.65;;
26060;SDS011;36331;51.378;0.018;2022-08-21T06:30:08;5.90;;;1.92;;
26060;SDS011;36331;51.378;0.018;2022-08-21T06:32:38;8.75;;;1.80;;
26060;SDS011;36331;51.378;0.018;2022-08-21T06:35:08;5.70;;;1.40;;
26060;SDS011;36331;51.378;0.018;2022-08-21T06:37:40;7.43;;;2.33;;
26060;SDS011;36331;51.378;0.018;2022-08-21T06:40:10;9.07;;;2.00;;
26060;SDS011;36331;51.378;0.018;2022-08-21T06:42:42;6.30;;;2.05;;
26060;SDS011;36331;51.378;0.018;2022-08-21T06:45:13;12.32;;;2.72;;
26060;SDS011;36331;51.378;0.018;2022-08-21T06:47:45;6.63;;;2.85;;
26060;SDS011;36331;51.378;0.018;2022-08-21T06:50:23;6.60;;;1.80;;
26060;SDS011;36331;51.378;0.018;2022-08-21T06:53:00;5.95;;;1.92;;
26060;SDS011;36331;51.378;0.018;2022-08-21T06:55:39;4.80;;;1.92;;
26060;SDS011;36331;51.378;0.018;2022-08-21T06:58:17;8.02;;;1.75;;
26060;SDS011;36331;51.378;0.018;2022-08-21T07:01:00;7.90;;;2.60;;
26060;SDS011;36331;51.378;0.018;2022-08-21T07:03:34;7.18;;;1.85;;
26060;SDS011;36331;51.378;0.018;2022-08-21T07:06:22;6.30;;;1.90;;
26060;SDS011;36331;51.378;0.018;2022-08-21T07:09:06;6.75;;;1.88;;
26060;SDS011;36331;51.378;0.018;2022-08-21T07:11:54;9.77;;;2.15;;
26060;SDS011;36331;51.378;0.018;2022-08-21T07:14:29;8.57;;;2.08;;
26060;SDS011;36331;51.378;0.018;2022-08-21T07:17:03;4.95;;;1.50;;
26060;SDS011;36331;51.378;0.018;2022-08-21T07:19:39;9.07;;;1.88;;
26060;SDS011;36331;51.378;0.018;2022-08-21T07:22:10;6.20;;;1.57;;
26060;SDS011;36331;51.378;0.018;2022-08-21T07:24:39;10.20;;;1.88;;
26060;SDS011;36331;51.378;0.018;2022-08-21T07:27:09;6.25;;;1.77;;
26060;SDS011;36331;51.378;0.018;2022-08-21T07:29:39;5.75;;;1.48;;
26060;SDS011;36331;51.378;0.018;2022-08-21T07:32:09;9.25;;;2.25;;
26060;SDS011;36331;51.378;0.018;2022-08-21T07:34:47;7.05;;;1.30;;
26060;SDS011;36331;51.378;0.018;2022-08-21T07:37:27;7.47;;;1.40;;
26060;SDS011;36331;51.378;0.018;2022-08-21T07:39:56;5.10;;;1.23;;
26060;SDS011;36331;51.378;0.018;2022-08-21T07:42:26;5.13;;;1.23;;
26060;SDS011;36331;51.378;0.018;2022-08-21T07:45:01;3.53;;;1.10;;
26060;SDS011;36331;51.378;0.018;2022-08-21T07:47:33;7.68;;;1.73;;
26060;SDS011;36331;51.378;0.018;2022-08-21T07:50:09;4.30;;;1.00;;
26060;SDS011;36331;51.378;0.018;2022-08-21T07:52:39;3.45;;;1.00;;
26060;SDS011;36331;51.378;0.018;2022-08-21T07:55:08;2.03;;;0.80;;
26060;SDS011;36331;51.378;0.018;2022-08-21T07:57:39;3.97;;;1.00;;
26060;SDS011;36331;51.378;0.018;2022-08-21T08:00:11;6.85;;;1.15;;
26060;SDS011;36331;51.378;0.018;2022-08-21T08:02:43;6.68;;;1.25;;
26060;SDS011;36331;51.378;0.018;2022-08-21T08:05:31;4.45;;;1.00;;
26060;SDS011;36331;51.378;0.018;2022-08-21T08:08:04;5.32;;;1.48;;
26060;SDS011;36331;51.378;0.018;2022-08-21T08:10:34;5.82;;;1.05;;
26060;SDS011;36331;51.378;0.018;2022-08-21T08:13:04;4.68;;;1.30;;
26060;SDS011;36331;51.378;0.018;2022-08-21T08:15:40;6.38;;;1.20;;
26060;SDS011;36331;51.378;0.018;2022-08-21T08:18:12;6.82;;;1.48;;
26060;SDS011;36331;51.378;0.018;2022-08-21T08:23:15;9.57;;;1.35;;
26060;SDS011;36331;51.378;0.018;2022-08-21T08:25:45;8.57;;;1.00;;
26060;SDS011;36331;51.378;0.018;2022-08-21T08:28:16;6.95;;;1.20;;
26060;SDS011;36331;51.378;0.018;2022-08-21T08:30:46;6.22;;;1.17;;
26060;SDS011;36331;51.378;0.018;2022-08-21T08:33:18;5.65;;;1.48;;
26060;SDS011;36331;51.378;0.018;2022-08-21T08:35:48;5.97;;;1.00;;
26060;SDS011;36331;51.378;0.018;2022-08-21T08:38:21;7.05;;;1.10;;
26060;SDS011;36331;51.378;0.018;2022-08-21T08:40:55;4.93;;;1.45;;
26060;SDS011;36331;51.378;0.018;2022-08-21T08:43:29;5.40;;;1.88;;
26060;SDS011;36331;51.378;0.018;2022-08-21T08:46:01;3.97;;;1.10;;
26060;SDS011;36331;51.378;0.018;2022-08-21T08:48:36;5.90;;;0.80;;
26060;SDS011;36331;51.378;0.018;2022-08-21T08:51:08;5.45;;;1.55;;
26060;SDS011;36331;51.378;0.018;2022-08-21T08:53:44;4.55;;;1.38;;
26060;SDS011;36331;51.378;0.018;2022-08-21T08:56:15;5.82;;;1.27;;
26060;SDS011;36331;51.378;0.018;2022-08-21T08:58:50;3.70;;;0.85;;
26060;SDS011;36331;51.378;0.018;2022-08-21T09:01:22;5.88;;;0.95;;
26060;SDS011;36331;51.378;0.018;2022-08-21T09:03:54;3.92;;;0.93;;
26060;SDS011;36331;51.378;0.018;2022-08-21T09:06:33;5.75;;;1.30;;
26060;SDS011;36331;51.378;0.018;2022-08-21T09:09:08;3.15;;;0.50;;
26060;SDS011;36331;51.378;0.018;2022-08-21T09:11:47;6.28;;;1.38;;
26060;SDS011;36331;51.378;0.018;2022-08-21T09:14:30;5.85;;;0.90;;
26060;SDS011;36331;51.378;0.018;2022-08-21T09:17:09;6.57;;;0.90;;
26060;SDS011;36331;51.378;0.018;2022-08-21T09:19:46;8.23;;;1.17;;
26060;SDS011;36331;51.378;0.018;2022-08-21T09:22:23;4.72;;;1.00;;
26060;SDS011;36331;51.378;0.018;2022-08-21T09:25:04;4.93;;;1.15;;
26060;SDS011;36331;51.378;0.018;2022-08-21T09:27:38;3.75;;;1.00;;
26060;SDS011;36331;51.378;0.018;2022-08-21T09:30:10;4.28;;;1.05;;
26060;SDS011;36331;51.378;0.018;2022-08-21T09:32:40;6.43;;;1.00;;
26060;SDS011;36331;51.378;0.018;2022-08-21T09:35:10;6.03;;;0.95;;
26060;SDS011;36331;51.378;0.018;2022-08-21T09:37:49;5.05;;;0.60;;
26060;SDS011;36331;51.378;0.018;2022-08-21T09:40:32;3.72;;;0.70;;
26060;SDS011;36331;51.378;0.018;2022-08-21T09:43:04;4.03;;;1.10;;
26060;SDS011;36331;51.378;0.018;2022-08-21T09:45:34;3.88;;;0.75;;
26060;SDS011;36331;51.378;0.018;2022-08-21T09:48:09;4.07;;;0.88;;
26060;SDS011;36331;51.378;0.018;2022-08-21T09:50:39;4.47;;;0.98;;
26060;SDS011;36331;51.378;0.018;2022-08-21T09:53:15;5.68;;;0.95;;
26060;SDS011;36331;51.378;0.018;2022-08-21T09:55:50;5.00;;;0.88;;
26060;SDS011;36331;51.378;0.018;2022-08-21T09:58:38;3.83;;;1.45;;
26060;SDS011;36331;51.378;0.018;2022-08-21T10:01:12;3.65;;;0.80;;
26060;SDS011;36331;51.378;0.018;2022-08-21T10:03:44;2.97;;;0.73;;
26060;SDS011;36331;51.378;0.018;2022-08-21T10:06:21;4.72;;;1.77;;
26060;SDS011;36331;51.378;0.018;2022-08-21T10:08:51;3.25;;;1.00;;
26060;SDS011;36331;51.378;0.018;2022-08-21T10:11:23;5.32;;;1.15;;
26060;SDS011;36331;51.378;0.018;2022-08-21T10:13:57;5.70;;;0.80;;
26060;SDS011;36331;51.378;0.018;2022-08-21T10:16:34;3.30;;;0.68;;
26060;SDS011;36331;51.378;0.018;2022-08-21T10:19:09;5.80;;;1.50;;
26060;SDS011;36331;51.378;0.018;2022-08-21T10:21:43;2.90;;;0.85;;
26060;SDS011;36331;51.378;0.018;2022-08-21T10:24:17;3.67;;;0.95;;
26060;SDS011;36331;51.378;0.018;2022-08-21T10:27:02;7.70;;;1.35;;
26060;SDS011;36331;51.378;0.018;2022-08-21T10:29:39;7.20;;;1.02;;
26060;SDS011;36331;51.378;0.018;2022-08-21T10:32:14;4.45;;;0.90;;
26060;SDS011;36331;51.378;0.018;2022-08-21T10:34:55;3.35;;;0.68;;
26060;SDS011;36331;51.378;0.018;2022-08-21T10:37:28;3.97;;;1.05;;
26060;SDS011;36331;51.378;0.018;2022-08-21T10:40:03;5.25;;;0.98;;
26060;SDS011;36331;51.378;0.018;2022-08-21T10:42:36;4.72;;;1.05;;
26060;SDS011;36331;51.378;0.018;2022-08-21T10:45:14;4.35;;;0.65;;
26060;SDS011;36331;51.378;0.018;2022-08-21T10:47:46;3.15;;;1.00;;
26060;SDS011;36331;51.378;0.018;2022-08-21T10:50:28;4.53;;;1.02;;
26060;SDS011;36331;51.378;0.018;2022-08-21T10:53:12;4.32;;;1.00;;
26060;SDS011;36331;51.378;0.018;2022-08-21T10:55:46;2.10;;;0.77;;
26060;SDS011;36331;51.378;0.018;2022-08-21T10:58:21;3.33;;;1.00;;
26060;SDS011;36331;51.378;0.018;2022-08-21T11:00:53;3.65;;;1.08;;
26060;SDS011;36331;51.378;0.018;2022-08-21T11:03:27;3.50;;;1.20;;
26060;SDS011;36331;51.378;0.018;2022-08-21T11:06:00;3.15;;;1.00;;
26060;SDS011;36331;51.378;0.018;2022-08-21T11:08:31;2.33;;;0.93;;
26060;SDS011;36331;51.378;0.018;2022-08-21T11:11:10;6.00;;;1.10;;
26060;SDS011;36331;51.378;0.018;2022-08-21T11:13:47;4.32;;;0.80;;
26060;SDS011;36331;51.378;0.018;2022-08-21T11:16:21;3.85;;;1.10;;
26060;SDS011;36331;51.378;0.018;2022-08-21T11:19:00;5.20;;;0.80;;
26060;SDS011;36331;51.378;0.018;2022-08-21T11:21:34;7.18;;;0.98;;
26060;SDS011;36331;51.378;0.018;2022-08-21T11:24:21;4.82;;;0.60;;
26060;SDS011;36331;51.378;0.018;2022-08-21T11:26:57;3.55;;;1.02;;
26060;SDS011;36331;51.378;0.018;2022-08-21T11:29:38;5.80;;;1.90;;
26060;SDS011;36331;51.378;0.018;2022-08-21T11:32:20;4.35;;;0.60;;
26060;SDS011;36331;51.378;0.018;2022-08-21T11:34:54;3.80;;;0.60;;
26060;SDS011;36331;51.378;0.018;2022-08-21T11:37:30;4.07;;;0.90;;
26060;SDS011;36331;51.378;0.018;2022-08-21T11:40:08;6.30;;;0.80;;
26060;SDS011;36331;51.378;0.018;2022-08-21T11:42:44;4.00;;;0.75;;
26060;SDS011;36331;51.378;0.018;2022-08-21T11:45:20;5.50;;;0.73;;
26060;SDS011;36331;51.378;0.018;2022-08-21T11:47:57;2.33;;;0.88;;
26060;SDS011;36331;51.378;0.018;2022-08-21T11:50:30;5.50;;;1.00;;
26060;SDS011;36331;51.378;0.018;2022-08-21T11:55:36;2.45;;;0.77;;
26060;SDS011;36331;51.378;0.018;2022-08-21T11:58:16;4.15;;;1.00;;
26060;SDS011;36331;51.378;0.018;2022-08-21T12:00:48;1.48;;;0.70;;
26060;SDS011;36331;51.378;0.018;2022-08-21T12:03:24;7.93;;;0.90;;
26060;SDS011;36331;51.378;0.018;2022-08-21T12:05:59;4.15;;;1.00;;
26060;SDS011;36331;51.378;0.018;2022-08-21T12:08:30;3.35;;;0.70;;
26060;SDS011;36331;51.378;0.018;2022-08-21T12:11:06;4.43;;;0.90;;
26060;SDS011;36331;51.378;0.018;2022-08-21T12:13:37;5.35;;;0.85;;
26060;SDS011;36331;51.378;0.018;2022-08-21T12:16:09;3.50;;;0.80;;
26060;SDS011;36331;51.378;0.018;2022-08-21T12:18:47;5.95;;;0.90;;
26060;SDS011;36331;51.378;0.018;2022-08-21T12:21:19;3.78;;;0.70;;
26060;SDS011;36331;51.378;0.018;2022-08-21T12:23:59;4.00;;;0.80;;
26060;SDS011;36331;51.378;0.018;2022-08-21T12:26:35;4.82;;;0.90;;
26060;SDS011;36331;51.378;0.018;2022-08-21T12:29:11;4.22;;;1.33;;
26060;SDS011;36331;51.378;0.018;2022-08-21T12:34:34;2.10;;;0.80;;
26060;SDS011;36331;51.378;0.018;2022-08-21T12:37:05;3.20;;;1.10;;
26060;SDS011;36331;51.378;0.018;2022-08-21T12:39:36;4.55;;;1.08;;
26060;SDS011;36331;51.378;0.018;2022-08-21T12:42:10;5.22;;;1.02;;
26060;SDS011;36331;51.378;0.018;2022-08-21T12:44:43;5.18;;;0.90;;
26060;SDS011;36331;51.378;0.018;2022-08-21T12:47:17;3.35;;;1.10;;
26060;SDS011;36331;51.378;0.018;2022-08-21T12:49:52;3.40;;;0.80;;
26060;SDS011;36331;51.378;0.018;2022-08-21T12:52:27;4.03;;;1.25;;
26060;SDS011;36331;51.378;0.018;2022-08-21T12:55:06;5.47;;;1.30;;
26060;SDS011;36331;51.378;0.018;2022-08-21T12:57:39;6.47;;;1.90;;
26060;SDS011;36331;51.378;0.018;2022-08-21T13:00:11;2.95;;;1.30;;
26060;SDS011;36331;51.378;0.018;2022-08-21T13:02:47;5.18;;;0.93;;
26060;SDS011;36331;51.378;0.018;2022-08-21T13:05:25;2.70;;;0.77;;
26060;SDS011;36331;51.378;0.018;2022-08-21T13:07:57;5.15;;;1.25;;
26060;SDS011;36331;51.378;0.018;2022-08-21T13:10:27;3.90;;;1.00;;
26060;SDS011;36331;51.378;0.018;2022-08-21T13:13:00;5.85;;;1.08;;
26060;SDS011;36331;51.378;0.018;2022-08-21T13:15:40;8.20;;;1.20;;
26060;SDS011;36331;51.378;0.018;2022-08-21T13:18:20;3.58;;;0.90;;
26060;SDS011;36331;51.378;0.018;2022-08-21T13:20:50;3.38;;;0.75;;
26060;SDS011;36331;51.378;0.018;2022-08-21T13:23:22;4.22;;;1.20;;
26060;SDS011;36331;51.378;0.018;2022-08-21T13:25:52;2.78;;;0.70;;
26060;SDS011;36331;51.378;0.018;2022-08-21T13:28:23;3.63;;;0.70;;
26060;SDS011;36331;51.378;0.018;2022-08-21T13:31:01;3.28;;;1.08;;
26060;SDS011;36331;51.378;0.018;2022-08-21T13:33:35;4.18;;;1.35;;
26060;SDS011;36331;51.378;0.018;2022-08-21T13:36:08;5.50;;;1.08;;
26060;SDS011;36331;51.378;0.018;2022-08-21T13:38:39;4.63;;;1.10;;
26060;SDS011;36331;51.378;0.018;2022-08-21T13:41:12;4.10;;;0.98;;
26060;SDS011;36331;51.378;0.018;2022-08-21T13:43:49;4.60;;;1.65;;
26060;SDS011;36331;51.378;0.018;2022-08-21T13:46:19;3.60;;;1.08;;
26060;SDS011;36331;51.378;0.018;2022-08-21T13:48:52;3.67;;;0.80;;
26060;SDS011;36331;51.378;0.018;2022-08-21T13:51:25;4.93;;;1.52;;
26060;SDS011;36331;51.378;0.018;2022-08-21T13:53:55;5.43;;;1.02;;
26060;SDS011;36331;51.378;0.018;2022-08-21T13:56:25;5.72;;;1.20;;
26060;SDS011;36331;51.378;0.018;2022-08-21T13:58:59;3.97;;;0.88;;
26060;SDS011;36331;51.378;0.018;2022-08-21T14:01:31;5.18;;;1.17;;
26060;SDS011;36331;51.378;0.018;2022-08-21T14:04:12;3.53;;;1.17;;
26060;SDS011;36331;51.378;0.018;2022-08-21T14:06:49;5.93;;;1.65;;
26060;SDS011;36331;51.378;0.018;2022-08-21T14:09:21;3.72;;;1.90;;
26060;SDS011;36331;51.378;0.018;2022-08-21T14:11:56;4.25;;;1.50;;
26060;SDS011;36331;51.378;0.018;2022-08-21T14:14:28;5.30;;;1.35;;
26060;SDS011;36331;51.378;0.018;2022-08-21T14:17:03;3.63;;;0.98;;
26060;SDS011;36331;51.378;0.018;2022-08-21T14:19:54;4.13;;;1.10;;
26060;SDS011;36331;51.378;0.018;2022-08-21T14:22:30;3.70;;;1.65;;
26060;SDS011;36331;51.378;0.018;2022-08-21T14:25:05;5.63;;;1.60;;
26060;SDS011;36331;51.378;0.018;2022-08-21T14:27:40;4.20;;;1.40;;
26060;SDS011;36331;51.378;0.018;2022-08-21T14:30:17;4.10;;;1.42;;
26060;SDS011;36331;51.378;0.018;2022-08-21T14:32:48;4.15;;;1.38;;
26060;SDS011;36331;51.378;0.018;2022-08-21T14:35:19;6.88;;;1.58;;
26060;SDS011;36331;51.378;0.018;2022-08-21T14:37:50;5.75;;;1.65;;
26060;SDS011;36331;51.378;0.018;2022-08-21T14:40:22;5.05;;;1.00;;
26060;SDS011;36331;51.378;0.018;2022-08-21T14:42:54;3.67;;;1.13;;
26060;SDS011;36331;51.378;0.018;2022-08-21T14:45:40;4.88;;;1.65;;
26060;SDS011;36331;51.378;0.018;2022-08-21T14:48:12;6.32;;;1.73;;
26060;SDS011;36331;51.378;0.018;2022-08-21T14:50:53;5.22;;;1.42;;
26060;SDS011;36331;51.378;0.018;2022-08-21T14:53:48;4.35;;;1.40;;
26060;SDS011;36331;51.378;0.018;2022-08-21T14:56:40;5.07;;;1.48;;
26060;SDS011;36331;51.378;0.018;2022-08-21T15:03:34;3.13;;;1.08;;
26060;SDS011;36331;51.378;0.018;2022-08-21T15:06:24;4.75;;;1.60;;
26060;SDS011;36331;51.378;0.018;2022-08-21T15:09:06;6.65;;;1.60;;
26060;SDS011;36331;51.378;0.018;2022-08-21T15:12:03;5.38;;;1.35;;
26060;SDS011;36331;51.378;0.018;2022-08-21T15:14:37;3.72;;;1.40;;
26060;SDS011;36331;51.378;0.018;2022-08-21T15:17:15;7.60;;;1.45;;
26060;SDS011;36331;51.378;0.018;2022-08-21T15:19:49;7.15;;;1.55;;
26060;SDS011;36331;51.378;0.018;2022-08-21T15:22:27;5.03;;;1.70;;
26060;SDS011;36331;51.378;0.018;2022-08-21T15:25:04;3.88;;;1.30;;
26060;SDS011;36331;51.378;0.018;2022-08-21T15:27:36;5.40;;;1.80;;
26060;SDS011;36331;51.378;0.018;2022-08-21T15:30:09;3.47;;;1.60;;
26060;SDS011;36331;51.378;0.018;2022-08-21T15:32:42;3.92;;;1.65;;
26060;SDS011;36331;51.378;0.018;2022-08-21T15:35:20;4.00;;;1.83;;
26060;SDS011;36331;51.378;0.018;2022-08-21T15:37:53;5.03;;;1.40;;
26060;SDS011;36331;51.378;0.018;2022-08-21T15:40:25;2.90;;;1.30;;
26060;SDS011;36331;51.378;0.018;2022-08-21T15:42:57;5.93;;;2.08;;
26060;SDS011;36331;51.378;0.018;2022-08-21T15:45:31;6.97;;;1.92;;
26060;SDS011;36331;51.378;0.018;2022-08-21T15:48:05;4.10;;;1.90;;
26060;SDS011;36331;51.378;0.018;2022-08-21T15:50:41;4.60;;;1.03;;
26060;SDS011;36331;51.378;0.018;2022-08-21T15:53:10;4.30;;;1.60;;
26060;SDS011;36331;51.378;0.018;2022-08-21T15:55:40;5.95;;;1.55;;
26060;SDS011;36331;51.378;0.018;2022-08-21T15:58:15;4.47;;;1.88;;
26060;SDS011;36331;51.378;0.018;2022-08-21T16:00:53;6.43;;;1.90;;
26060;SDS011;36331;51.378;0.018;2022-08-21T16:03:26;2.58;;;1.00;;